Terminal Aerodrome Forecast
Issued by NWS

Home | Current Version | Previous Version | Text Only | Print | Product List | Glossary On
Versions: 1 2 3 4 5 6 7 8 9 10 11 12 13 14 15 16 17 18 19
000
FTUS43 KLSX 280500
TAFUIN
TAF
KUIN 280520Z 2806/2906 VRB04KT 6SM BR SCT020 BKN080
      TEMPO 2808/2812 4SM BR
     FM281200 10005KT P6SM VCTS SCT025 BKN080CB
     FM281500 14008KT P6SM SCT040 BKN120=

USA.gov is the U.S. government's official web portal to all federal, state and local government web resources and services.